sensor_id;sensor_type;location;lat;lon;timestamp;P1;durP1;ratioP1;P2;durP2;ratioP2
35366;SDS011;21465;52.278;20.962;2023-04-08T00:00:26;3.13;;;2.92;;
35366;SDS011;21465;52.278;20.962;2023-04-08T00:03:11;3.63;;;3.33;;
35366;SDS011;21465;52.278;20.962;2023-04-08T00:05:37;4.28;;;3.97;;
35366;SDS011;21465;52.278;20.962;2023-04-08T00:08:03;3.72;;;3.42;;
35366;SDS011;21465;52.278;20.962;2023-04-08T00:10:28;4.15;;;3.85;;
35366;SDS011;21465;52.278;20.962;2023-04-08T00:12:54;4.65;;;4.25;;
35366;SDS011;21465;52.278;20.962;2023-04-08T00:15:20;3.95;;;3.65;;
35366;SDS011;21465;52.278;20.962;2023-04-08T00:17:46;4.68;;;4.38;;
35366;SDS011;21465;52.278;20.962;2023-04-08T00:20:11;3.92;;;3.63;;
35366;SDS011;21465;52.278;20.962;2023-04-08T00:22:37;3.97;;;3.67;;
35366;SDS011;21465;52.278;20.962;2023-04-08T00:25:03;4.63;;;4.30;;
35366;SDS011;21465;52.278;20.962;2023-04-08T00:27:34;4.38;;;4.07;;
35366;SDS011;21465;52.278;20.962;2023-04-08T00:29:59;4.00;;;3.70;;
35366;SDS011;21465;52.278;20.962;2023-04-08T00:32:26;4.38;;;4.07;;
35366;SDS011;21465;52.278;20.962;2023-04-08T00:34:52;4.28;;;3.97;;
35366;SDS011;21465;52.278;20.962;2023-04-08T00:37:18;5.30;;;4.90;;
35366;SDS011;21465;52.278;20.962;2023-04-08T00:39:44;4.35;;;4.05;;
35366;SDS011;21465;52.278;20.962;2023-04-08T00:42:09;4.57;;;4.28;;
35366;SDS011;21465;52.278;20.962;2023-04-08T00:44:35;4.80;;;4.43;;
35366;SDS011;21465;52.278;20.962;2023-04-08T00:47:02;4.50;;;4.20;;
35366;SDS011;21465;52.278;20.962;2023-04-08T00:49:29;4.65;;;4.30;;
35366;SDS011;21465;52.278;20.962;2023-04-08T00:51:58;4.20;;;3.90;;
35366;SDS011;21465;52.278;20.962;2023-04-08T00:54:23;3.70;;;3.40;;
35366;SDS011;21465;52.278;20.962;2023-04-08T00:56:49;4.10;;;3.80;;
35366;SDS011;21465;52.278;20.962;2023-04-08T00:59:16;4.53;;;4.22;;
35366;SDS011;21465;52.278;20.962;2023-04-08T01:01:42;4.15;;;3.85;;
35366;SDS011;21465;52.278;20.962;2023-04-08T01:06:57;4.50;;;4.20;;
35366;SDS011;21465;52.278;20.962;2023-04-08T01:09:27;4.20;;;3.90;;
35366;SDS011;21465;52.278;20.962;2023-04-08T01:11:54;4.17;;;3.87;;
35366;SDS011;21465;52.278;20.962;2023-04-08T01:14:22;4.05;;;3.75;;
35366;SDS011;21465;52.278;20.962;2023-04-08T01:16:53;4.45;;;4.15;;
35366;SDS011;21465;52.278;20.962;2023-04-08T01:19:23;4.93;;;4.53;;
35366;SDS011;21465;52.278;20.962;2023-04-08T01:21:53;5.10;;;4.70;;
35366;SDS011;21465;52.278;20.962;2023-04-08T01:24:22;4.97;;;4.65;;
35366;SDS011;21465;52.278;20.962;2023-04-08T01:26:54;4.57;;;4.28;;
35366;SDS011;21465;52.278;20.962;2023-04-08T01:29:21;4.72;;;4.32;;
35366;SDS011;21465;52.278;20.962;2023-04-08T01:31:48;4.40;;;4.10;;
35366;SDS011;21465;52.278;20.962;2023-04-08T01:34:14;5.18;;;4.78;;
35366;SDS011;21465;52.278;20.962;2023-04-08T01:36:41;5.43;;;4.93;;
35366;SDS011;21465;52.278;20.962;2023-04-08T01:39:08;4.82;;;4.53;;
35366;SDS011;21465;52.278;20.962;2023-04-08T01:41:34;5.32;;;4.93;;
35366;SDS011;21465;52.278;20.962;2023-04-08T01:44:01;5.28;;;4.88;;
35366;SDS011;21465;52.278;20.962;2023-04-08T01:46:27;5.30;;;4.90;;
35366;SDS011;21465;52.278;20.962;2023-04-08T01:48:53;5.15;;;4.78;;
35366;SDS011;21465;52.278;20.962;2023-04-08T01:51:20;4.97;;;4.57;;
35366;SDS011;21465;52.278;20.962;2023-04-08T01:53:46;5.20;;;4.80;;
35366;SDS011;21465;52.278;20.962;2023-04-08T01:56:12;5.88;;;5.45;;
35366;SDS011;21465;52.278;20.962;2023-04-08T01:58:40;6.00;;;5.50;;
35366;SDS011;21465;52.278;20.962;2023-04-08T02:01:09;5.78;;;5.38;;
35366;SDS011;21465;52.278;20.962;2023-04-08T02:03:37;6.93;;;6.43;;
35366;SDS011;21465;52.278;20.962;2023-04-08T02:06:03;6.50;;;6.00;;
35366;SDS011;21465;52.278;20.962;2023-04-08T02:08:29;6.88;;;6.38;;
35366;SDS011;21465;52.278;20.962;2023-04-08T02:10:55;7.18;;;6.63;;
35366;SDS011;21465;52.278;20.962;2023-04-08T02:13:20;6.55;;;6.05;;
35366;SDS011;21465;52.278;20.962;2023-04-08T02:15:51;6.60;;;6.10;;
35366;SDS011;21465;52.278;20.962;2023-04-08T02:18:24;7.30;;;6.80;;
35366;SDS011;21465;52.278;20.962;2023-04-08T02:20:54;6.72;;;6.13;;
35366;SDS011;21465;52.278;20.962;2023-04-08T02:23:26;6.93;;;6.43;;
35366;SDS011;21465;52.278;20.962;2023-04-08T02:25:54;7.18;;;6.57;;
35366;SDS011;21465;52.278;20.962;2023-04-08T02:28:20;5.90;;;5.50;;
35366;SDS011;21465;52.278;20.962;2023-04-08T02:30:47;6.97;;;6.47;;
35366;SDS011;21465;52.278;20.962;2023-04-08T02:33:14;6.25;;;5.82;;
35366;SDS011;21465;52.278;20.962;2023-04-08T02:35:43;9.60;;;8.70;;
35366;SDS011;21465;52.278;20.962;2023-04-08T02:38:09;8.75;;;8.00;;
35366;SDS011;21465;52.278;20.962;2023-04-08T02:40:35;6.68;;;6.18;;
35366;SDS011;21465;52.278;20.962;2023-04-08T02:43:02;6.60;;;6.10;;
35366;SDS011;21465;52.278;20.962;2023-04-08T02:45:30;7.00;;;6.40;;
35366;SDS011;21465;52.278;20.962;2023-04-08T02:47:57;6.97;;;6.38;;
35366;SDS011;21465;52.278;20.962;2023-04-08T02:50:25;6.85;;;6.35;;
35366;SDS011;21465;52.278;20.962;2023-04-08T02:52:50;6.68;;;6.10;;
35366;SDS011;21465;52.278;20.962;2023-04-08T02:55:16;6.50;;;5.90;;
35366;SDS011;21465;52.278;20.962;2023-04-08T02:57:42;6.30;;;5.80;;
35366;SDS011;21465;52.278;20.962;2023-04-08T03:00:08;6.10;;;5.65;;
35366;SDS011;21465;52.278;20.962;2023-04-08T03:02:34;6.50;;;6.00;;
35366;SDS011;21465;52.278;20.962;2023-04-08T03:05:01;6.82;;;6.22;;
35366;SDS011;21465;52.278;20.962;2023-04-08T03:07:27;6.65;;;6.05;;
35366;SDS011;21465;52.278;20.962;2023-04-08T03:09:53;6.20;;;5.72;;
35366;SDS011;21465;52.278;20.962;2023-04-08T03:12:20;6.50;;;6.00;;
35366;SDS011;21465;52.278;20.962;2023-04-08T03:14:46;6.25;;;5.75;;
35366;SDS011;21465;52.278;20.962;2023-04-08T03:17:12;7.00;;;6.47;;
35366;SDS011;21465;52.278;20.962;2023-04-08T03:19:38;6.38;;;5.88;;
35366;SDS011;21465;52.278;20.962;2023-04-08T03:22:04;6.55;;;6.05;;
35366;SDS011;21465;52.278;20.962;2023-04-08T03:24:30;6.90;;;6.40;;
35366;SDS011;21465;52.278;20.962;2023-04-08T03:26:56;6.10;;;5.68;;
35366;SDS011;21465;52.278;20.962;2023-04-08T03:29:22;6.90;;;6.32;;
35366;SDS011;21465;52.278;20.962;2023-04-08T03:31:47;6.53;;;6.03;;
35366;SDS011;21465;52.278;20.962;2023-04-08T03:34:13;6.38;;;5.88;;
35366;SDS011;21465;52.278;20.962;2023-04-08T03:36:39;6.75;;;6.25;;
35366;SDS011;21465;52.278;20.962;2023-04-08T03:39:05;6.25;;;5.75;;
35366;SDS011;21465;52.278;20.962;2023-04-08T03:41:30;6.68;;;6.10;;
35366;SDS011;21465;52.278;20.962;2023-04-08T03:43:56;6.20;;;5.70;;
35366;SDS011;21465;52.278;20.962;2023-04-08T03:46:22;6.85;;;6.35;;
35366;SDS011;21465;52.278;20.962;2023-04-08T03:48:48;6.35;;;5.85;;
35366;SDS011;21465;52.278;20.962;2023-04-08T03:51:13;6.78;;;6.28;;
35366;SDS011;21465;52.278;20.962;2023-04-08T03:53:39;7.05;;;6.45;;
35366;SDS011;21465;52.278;20.962;2023-04-08T03:56:05;6.70;;;6.20;;
35366;SDS011;21465;52.278;20.962;2023-04-08T03:58:31;6.85;;;6.35;;
35366;SDS011;21465;52.278;20.962;2023-04-08T04:00:57;6.90;;;6.40;;
35366;SDS011;21465;52.278;20.962;2023-04-08T04:03:23;7.15;;;6.65;;
35366;SDS011;21465;52.278;20.962;2023-04-08T04:05:49;6.75;;;6.25;;
35366;SDS011;21465;52.278;20.962;2023-04-08T04:08:15;7.00;;;6.32;;
35366;SDS011;21465;52.278;20.962;2023-04-08T04:10:40;7.30;;;6.63;;
35366;SDS011;21465;52.278;20.962;2023-04-08T04:13:06;7.63;;;7.03;;
35366;SDS011;21465;52.278;20.962;2023-04-08T04:15:31;7.15;;;6.55;;
35366;SDS011;21465;52.278;20.962;2023-04-08T04:17:57;7.30;;;6.75;;
35366;SDS011;21465;52.278;20.962;2023-04-08T04:20:23;7.22;;;6.63;;
35366;SDS011;21465;52.278;20.962;2023-04-08T04:22:50;7.72;;;7.10;;
35366;SDS011;21465;52.278;20.962;2023-04-08T04:25:16;7.03;;;6.30;;
35366;SDS011;21465;52.278;20.962;2023-04-08T04:27:42;8.50;;;7.80;;
35366;SDS011;21465;52.278;20.962;2023-04-08T04:30:07;7.45;;;6.85;;
35366;SDS011;21465;52.278;20.962;2023-04-08T04:32:34;7.75;;;7.15;;
35366;SDS011;21465;52.278;20.962;2023-04-08T04:34:59;6.93;;;6.43;;
35366;SDS011;21465;52.278;20.962;2023-04-08T04:37:25;6.70;;;6.13;;
35366;SDS011;21465;52.278;20.962;2023-04-08T04:39:51;6.10;;;5.60;;
35366;SDS011;21465;52.278;20.962;2023-04-08T04:42:17;5.95;;;5.53;;
35366;SDS011;21465;52.278;20.962;2023-04-08T04:44:43;5.90;;;5.40;;
35366;SDS011;21465;52.278;20.962;2023-04-08T04:47:09;5.60;;;5.20;;
35366;SDS011;21465;52.278;20.962;2023-04-08T04:49:34;5.50;;;5.10;;
35366;SDS011;21465;52.278;20.962;2023-04-08T04:52:01;4.90;;;4.60;;
35366;SDS011;21465;52.278;20.962;2023-04-08T04:54:27;5.57;;;5.18;;
35366;SDS011;21465;52.278;20.962;2023-04-08T04:56:53;5.35;;;4.95;;
35366;SDS011;21465;52.278;20.962;2023-04-08T04:59:18;5.38;;;4.97;;
35366;SDS011;21465;52.278;20.962;2023-04-08T05:01:44;5.40;;;5.00;;
35366;SDS011;21465;52.278;20.962;2023-04-08T05:04:10;5.38;;;4.97;;
35366;SDS011;21465;52.278;20.962;2023-04-08T05:06:37;5.35;;;4.85;;
35366;SDS011;21465;52.278;20.962;2023-04-08T05:09:02;5.63;;;5.20;;
35366;SDS011;21465;52.278;20.962;2023-04-08T05:11:30;5.50;;;5.10;;
35366;SDS011;21465;52.278;20.962;2023-04-08T05:13:56;5.63;;;5.22;;
35366;SDS011;21465;52.278;20.962;2023-04-08T05:16:22;5.80;;;5.30;;
35366;SDS011;21465;52.278;20.962;2023-04-08T05:18:47;5.80;;;5.40;;
35366;SDS011;21465;52.278;20.962;2023-04-08T05:21:13;5.72;;;5.00;;
35366;SDS011;21465;52.278;20.962;2023-04-08T05:23:39;5.45;;;5.05;;
35366;SDS011;21465;52.278;20.962;2023-04-08T05:26:07;5.40;;;5.00;;
35366;SDS011;21465;52.278;20.962;2023-04-08T05:28:33;5.18;;;4.78;;
35366;SDS011;21465;52.278;20.962;2023-04-08T05:31:00;5.22;;;4.88;;
35366;SDS011;21465;52.278;20.962;2023-04-08T05:33:25;5.38;;;4.97;;
35366;SDS011;21465;52.278;20.962;2023-04-08T05:35:52;4.95;;;4.63;;
35366;SDS011;21465;52.278;20.962;2023-04-08T05:38:18;4.78;;;4.47;;
35366;SDS011;21465;52.278;20.962;2023-04-08T05:40:44;5.32;;;4.93;;
35366;SDS011;21465;52.278;20.962;2023-04-08T05:43:09;5.10;;;4.63;;
35366;SDS011;21465;52.278;20.962;2023-04-08T05:45:35;5.47;;;5.07;;
35366;SDS011;21465;52.278;20.962;2023-04-08T05:48:01;5.20;;;4.80;;
35366;SDS011;21465;52.278;20.962;2023-04-08T05:50:27;4.80;;;4.50;;
35366;SDS011;21465;52.278;20.962;2023-04-08T05:52:53;5.22;;;4.93;;
35366;SDS011;21465;52.278;20.962;2023-04-08T05:55:20;5.38;;;4.97;;
35366;SDS011;21465;52.278;20.962;2023-04-08T05:57:45;5.22;;;4.82;;
35366;SDS011;21465;52.278;20.962;2023-04-08T06:00:11;5.15;;;4.55;;
35366;SDS011;21465;52.278;20.962;2023-04-08T06:02:37;5.65;;;5.18;;
35366;SDS011;21465;52.278;20.962;2023-04-08T06:05:03;5.68;;;5.22;;
35366;SDS011;21465;52.278;20.962;2023-04-08T06:07:31;5.40;;;5.00;;
35366;SDS011;21465;52.278;20.962;2023-04-08T06:09:57;4.95;;;4.65;;
35366;SDS011;21465;52.278;20.962;2023-04-08T06:12:22;5.03;;;4.72;;
35366;SDS011;21465;52.278;20.962;2023-04-08T06:14:52;4.65;;;4.35;;
35366;SDS011;21465;52.278;20.962;2023-04-08T06:17:19;4.53;;;4.28;;
35366;SDS011;21465;52.278;20.962;2023-04-08T06:19:46;5.00;;;4.60;;
35366;SDS011;21465;52.278;20.962;2023-04-08T06:22:12;4.50;;;4.20;;
35366;SDS011;21465;52.278;20.962;2023-04-08T06:24:38;4.93;;;4.63;;
35366;SDS011;21465;52.278;20.962;2023-04-08T06:27:03;5.20;;;4.80;;
35366;SDS011;21465;52.278;20.962;2023-04-08T06:29:29;4.63;;;4.32;;
35366;SDS011;21465;52.278;20.962;2023-04-08T06:31:55;4.85;;;4.55;;
35366;SDS011;21465;52.278;20.962;2023-04-08T06:34:21;4.80;;;4.50;;
35366;SDS011;21465;52.278;20.962;2023-04-08T06:36:47;4.93;;;4.63;;
35366;SDS011;21465;52.278;20.962;2023-04-08T06:39:12;5.13;;;4.82;;
35366;SDS011;21465;52.278;20.962;2023-04-08T06:41:41;4.55;;;4.30;;
35366;SDS011;21465;52.278;20.962;2023-04-08T06:44:07;4.75;;;4.45;;
35366;SDS011;21465;52.278;20.962;2023-04-08T06:46:32;4.65;;;4.35;;
35366;SDS011;21465;52.278;20.962;2023-04-08T06:48:58;4.65;;;4.35;;
35366;SDS011;21465;52.278;20.962;2023-04-08T06:51:24;4.65;;;4.35;;
35366;SDS011;21465;52.278;20.962;2023-04-08T06:53:50;4.45;;;4.15;;
35366;SDS011;21465;52.278;20.962;2023-04-08T06:56:16;4.07;;;3.70;;
35366;SDS011;21465;52.278;20.962;2023-04-08T06:58:42;3.78;;;3.58;;
35366;SDS011;21465;52.278;20.962;2023-04-08T07:01:07;4.70;;;4.10;;
35366;SDS011;21465;52.278;20.962;2023-04-08T07:03:33;4.18;;;3.90;;
35366;SDS011;21465;52.278;20.962;2023-04-08T07:05:59;4.30;;;3.80;;
35366;SDS011;21465;52.278;20.962;2023-04-08T07:08:25;4.10;;;3.80;;
35366;SDS011;21465;52.278;20.962;2023-04-08T07:10:51;3.70;;;3.50;;
35366;SDS011;21465;52.278;20.962;2023-04-08T07:13:18;3.85;;;3.58;;
35366;SDS011;21465;52.278;20.962;2023-04-08T07:15:44;4.10;;;3.80;;
35366;SDS011;21465;52.278;20.962;2023-04-08T07:18:09;3.97;;;3.78;;
35366;SDS011;21465;52.278;20.962;2023-04-08T07:20:36;3.80;;;3.60;;
35366;SDS011;21465;52.278;20.962;2023-04-08T07:23:03;3.50;;;3.30;;
35366;SDS011;21465;52.278;20.962;2023-04-08T07:25:29;3.20;;;3.00;;
35366;SDS011;21465;52.278;20.962;2023-04-08T07:27:55;3.33;;;3.13;;
35366;SDS011;21465;52.278;20.962;2023-04-08T07:30:21;3.58;;;3.38;;
35366;SDS011;21465;52.278;20.962;2023-04-08T07:32:47;3.58;;;3.38;;
35366;SDS011;21465;52.278;20.962;2023-04-08T07:35:12;3.38;;;3.17;;
35366;SDS011;21465;52.278;20.962;2023-04-08T07:37:38;3.13;;;2.92;;
35366;SDS011;21465;52.278;20.962;2023-04-08T07:40:04;3.40;;;3.20;;
35366;SDS011;21465;52.278;20.962;2023-04-08T07:42:30;3.17;;;2.97;;
35366;SDS011;21465;52.278;20.962;2023-04-08T07:44:56;3.22;;;3.03;;
35366;SDS011;21465;52.278;20.962;2023-04-08T07:47:22;3.33;;;3.13;;
35366;SDS011;21465;52.278;20.962;2023-04-08T07:49:47;3.17;;;2.97;;
35366;SDS011;21465;52.278;20.962;2023-04-08T07:52:14;3.85;;;3.30;;
35366;SDS011;21465;52.278;20.962;2023-04-08T07:54:39;3.22;;;3.03;;
35366;SDS011;21465;52.278;20.962;2023-04-08T07:57:06;3.00;;;2.80;;
35366;SDS011;21465;52.278;20.962;2023-04-08T07:59:32;2.97;;;2.78;;
35366;SDS011;21465;52.278;20.962;2023-04-08T08:01:58;3.22;;;3.03;;
35366;SDS011;21465;52.278;20.962;2023-04-08T08:04:23;3.58;;;3.38;;
35366;SDS011;21465;52.278;20.962;2023-04-08T08:06:50;3.75;;;3.15;;
35366;SDS011;21465;52.278;20.962;2023-04-08T08:09:23;2.85;;;2.75;;
35366;SDS011;21465;52.278;20.962;2023-04-08T08:11:49;2.92;;;2.83;;
35366;SDS011;21465;52.278;20.962;2023-04-08T08:14:15;3.55;;;3.35;;
35366;SDS011;21465;52.278;20.962;2023-04-08T08:16:41;3.08;;;2.88;;
35366;SDS011;21465;52.278;20.962;2023-04-08T08:19:07;3.47;;;3.28;;
35366;SDS011;21465;52.278;20.962;2023-04-08T08:21:36;3.53;;;3.30;;
35366;SDS011;21465;52.278;20.962;2023-04-08T08:24:02;3.50;;;3.30;;
35366;SDS011;21465;52.278;20.962;2023-04-08T08:26:28;3.35;;;3.15;;
35366;SDS011;21465;52.278;20.962;2023-04-08T08:28:54;3.38;;;3.17;;
35366;SDS011;21465;52.278;20.962;2023-04-08T08:31:30;3.38;;;3.17;;
35366;SDS011;21465;52.278;20.962;2023-04-08T08:33:56;2.72;;;2.58;;
35366;SDS011;21465;52.278;20.962;2023-04-08T08:36:22;3.08;;;2.88;;
35366;SDS011;21465;52.278;20.962;2023-04-08T08:38:47;3.63;;;3.42;;
35366;SDS011;21465;52.278;20.962;2023-04-08T08:41:13;2.97;;;2.78;;
35366;SDS011;21465;52.278;20.962;2023-04-08T08:43:39;3.15;;;2.95;;
35366;SDS011;21465;52.278;20.962;2023-04-08T08:46:09;3.47;;;3.28;;
35366;SDS011;21465;52.278;20.962;2023-04-08T08:48:36;3.65;;;3.45;;
35366;SDS011;21465;52.278;20.962;2023-04-08T08:51:07;3.63;;;3.42;;
35366;SDS011;21465;52.278;20.962;2023-04-08T08:53:36;4.00;;;3.70;;
35366;SDS011;21465;52.278;20.962;2023-04-08T08:56:02;2.60;;;2.50;;
35366;SDS011;21465;52.278;20.962;2023-04-08T09:01:58;3.28;;;3.08;;
35366;SDS011;21465;52.278;20.962;2023-04-08T09:04:24;3.25;;;3.05;;
35366;SDS011;21465;52.278;20.962;2023-04-08T09:07:07;3.38;;;3.17;;
35366;SDS011;21465;52.278;20.962;2023-04-08T09:09:47;3.83;;;3.53;;
35366;SDS011;21465;52.278;20.962;2023-04-08T09:12:16;3.92;;;3.63;;
35366;SDS011;21465;52.278;20.962;2023-04-08T09:14:43;3.42;;;3.22;;
35366;SDS011;21465;52.278;20.962;2023-04-08T09:17:10;3.47;;;3.28;;
35366;SDS011;21465;52.278;20.962;2023-04-08T09:19:36;3.17;;;2.97;;
35366;SDS011;21465;52.278;20.962;2023-04-08T09:22:08;3.40;;;3.20;;
35366;SDS011;21465;52.278;20.962;2023-04-08T09:24:39;3.42;;;3.22;;
35366;SDS011;21465;52.278;20.962;2023-04-08T09:27:10;3.15;;;2.95;;
35366;SDS011;21465;52.278;20.962;2023-04-08T09:29:38;3.10;;;2.90;;
35366;SDS011;21465;52.278;20.962;2023-04-08T09:32:06;3.10;;;2.90;;
35366;SDS011;21465;52.278;20.962;2023-04-08T09:34:32;3.47;;;3.28;;
35366;SDS011;21465;52.278;20.962;2023-04-08T09:36:59;3.85;;;3.55;;
35366;SDS011;21465;52.278;20.962;2023-04-08T09:39:25;4.07;;;3.78;;
35366;SDS011;21465;52.278;20.962;2023-04-08T09:41:51;3.45;;;3.25;;
35366;SDS011;21465;52.278;20.962;2023-04-08T09:44:17;3.33;;;3.13;;
35366;SDS011;21465;52.278;20.962;2023-04-08T09:51:53;3.50;;;3.30;;
35366;SDS011;21465;52.278;20.962;2023-04-08T09:54:30;3.88;;;3.58;;
35366;SDS011;21465;52.278;20.962;2023-04-08T09:57:09;3.60;;;3.40;;
35366;SDS011;21465;52.278;20.962;2023-04-08T09:59:38;3.50;;;3.30;;
35366;SDS011;21465;52.278;20.962;2023-04-08T10:02:10;3.35;;;3.15;;
35366;SDS011;21465;52.278;20.962;2023-04-08T10:04:39;3.40;;;3.20;;
